sensor_id;sensor_type;location;lat;lon;timestamp;pressure;altitude;pressure_sealevel;temperature;humidity
39681;BME280;26327;42.550;23.120;2023-05-09T00:02:01;92963.94;;;13.42;99.54
39681;BME280;26327;42.550;23.120;2023-05-09T00:04:26;93006.09;;;13.87;98.91
39681;BME280;26327;42.550;23.120;2023-05-09T00:06:53;93025.59;;;13.91;98.98
39681;BME280;26327;42.550;23.120;2023-05-09T00:09:18;93019.38;;;13.92;98.76
39681;BME280;26327;42.550;23.120;2023-05-09T00:11:44;92977.69;;;13.64;98.89
39681;BME280;26327;42.550;23.120;2023-05-09T00:14:09;93021.59;;;13.95;98.46
39681;BME280;26327;42.550;23.120;2023-05-09T00:16:36;93033.66;;;13.96;98.13
39681;BME280;26327;42.550;23.120;2023-05-09T00:19:02;92975.81;;;13.51;98.55
39681;BME280;26327;42.550;23.120;2023-05-09T00:21:28;92962.78;;;13.58;97.73
39681;BME280;26327;42.550;23.120;2023-05-09T00:23:54;93009.91;;;13.84;97.42
39681;BME280;26327;42.550;23.120;2023-05-09T00:26:20;92918.44;;;13.17;97.57
39681;BME280;26327;42.550;23.120;2023-05-09T00:28:46;92919.16;;;13.32;96.25
39681;BME280;26327;42.550;23.120;2023-05-09T00:31:12;92998.97;;;13.68;96.94
39681;BME280;26327;42.550;23.120;2023-05-09T00:33:37;92956.16;;;13.55;95.40
39681;BME280;26327;42.550;23.120;2023-05-09T00:36:03;92984.91;;;13.69;95.40
39681;BME280;26327;42.550;23.120;2023-05-09T00:38:28;92995.94;;;13.64;96.12
39681;BME280;26327;42.550;23.120;2023-05-09T00:40:54;92938.78;;;13.28;96.83
39681;BME280;26327;42.550;23.120;2023-05-09T00:43:20;92928.72;;;12.90;98.93
39681;BME280;26327;42.550;23.120;2023-05-09T00:45:46;93019.06;;;13.67;98.47
39681;BME280;26327;42.550;23.120;2023-05-09T00:48:13;92965.13;;;13.33;98.07
39681;BME280;26327;42.550;23.120;2023-05-09T00:50:39;92996.44;;;13.33;99.35
39681;BME280;26327;42.550;23.120;2023-05-09T00:53:05;92913.91;;;12.63;100.00
39681;BME280;26327;42.550;23.120;2023-05-09T00:55:30;93010.13;;;13.14;100.00
39681;BME280;26327;42.550;23.120;2023-05-09T00:57:56;92987.09;;;12.89;99.81
39681;BME280;26327;42.550;23.120;2023-05-09T01:00:21;92994.78;;;12.98;98.62
39681;BME280;26327;42.550;23.120;2023-05-09T01:02:49;92998.50;;;13.16;97.83
39681;BME280;26327;42.550;23.120;2023-05-09T01:05:17;92990.81;;;13.08;98.31
39681;BME280;26327;42.550;23.120;2023-05-09T01:08:03;93003.13;;;13.49;97.07
39681;BME280;26327;42.550;23.120;2023-05-09T01:11:33;93000.13;;;13.52;96.75
39681;BME280;26327;42.550;23.120;2023-05-09T01:16:34;92999.13;;;13.18;98.35
39681;BME280;26327;42.550;23.120;2023-05-09T01:21:57;92977.31;;;12.98;97.82
39681;BME280;26327;42.550;23.120;2023-05-09T01:24:54;93006.28;;;13.10;98.24
39681;BME280;26327;42.550;23.120;2023-05-09T01:27:39;93013.53;;;13.14;98.24
39681;BME280;26327;42.550;23.120;2023-05-09T01:30:10;93004.44;;;13.04;98.44
39681;BME280;26327;42.550;23.120;2023-05-09T01:32:38;92996.81;;;13.02;98.57
39681;BME280;26327;42.550;23.120;2023-05-09T01:35:04;93002.31;;;12.86;99.20
39681;BME280;26327;42.550;23.120;2023-05-09T01:37:32;93000.53;;;12.86;99.30
39681;BME280;26327;42.550;23.120;2023-05-09T01:40:07;92960.03;;;12.90;98.40
39681;BME280;26327;42.550;23.120;2023-05-09T01:42:50;93008.28;;;13.08;98.91
39681;BME280;26327;42.550;23.120;2023-05-09T01:45:17;92977.19;;;12.78;99.38
39681;BME280;26327;42.550;23.120;2023-05-09T01:47:43;92991.09;;;12.85;99.77
39681;BME280;26327;42.550;23.120;2023-05-09T01:50:11;92994.72;;;12.63;100.00
39681;BME280;26327;42.550;23.120;2023-05-09T01:52:38;92970.53;;;12.48;100.00
39681;BME280;26327;42.550;23.120;2023-05-09T01:55:06;92884.59;;;11.62;100.00
39681;BME280;26327;42.550;23.120;2023-05-09T01:57:34;93013.84;;;12.06;100.00
39681;BME280;26327;42.550;23.120;2023-05-09T02:00:00;92919.38;;;11.55;100.00
39681;BME280;26327;42.550;23.120;2023-05-09T02:02:27;92932.81;;;11.58;100.00
39681;BME280;26327;42.550;23.120;2023-05-09T02:04:56;93004.03;;;11.87;100.00
39681;BME280;26327;42.550;23.120;2023-05-09T02:07:23;92958.16;;;11.71;100.00
39681;BME280;26327;42.550;23.120;2023-05-09T02:09:49;93007.34;;;11.81;100.00
39681;BME280;26327;42.550;23.120;2023-05-09T02:12:18;93013.44;;;11.73;100.00
39681;BME280;26327;42.550;23.120;2023-05-09T02:14:43;93004.22;;;11.85;100.00
39681;BME280;26327;42.550;23.120;2023-05-09T02:17:09;92996.28;;;11.93;100.00
39681;BME280;26327;42.550;23.120;2023-05-09T02:19:35;92995.41;;;11.72;100.00
39681;BME280;26327;42.550;23.120;2023-05-09T02:22:01;93025.28;;;11.76;100.00
39681;BME280;26327;42.550;23.120;2023-05-09T02:24:30;93008.59;;;11.70;100.00
39681;BME280;26327;42.550;23.120;2023-05-09T02:26:56;93015.56;;;11.48;100.00
39681;BME280;26327;42.550;23.120;2023-05-09T02:29:26;93000.75;;;11.34;100.00
39681;BME280;26327;42.550;23.120;2023-05-09T02:31:54;92932.84;;;10.93;100.00
39681;BME280;26327;42.550;23.120;2023-05-09T02:34:20;92994.13;;;11.46;100.00
39681;BME280;26327;42.550;23.120;2023-05-09T02:36:46;93008.66;;;11.41;100.00
39681;BME280;26327;42.550;23.120;2023-05-09T02:39:12;92995.66;;;11.11;100.00
39681;BME280;26327;42.550;23.120;2023-05-09T02:41:37;93016.19;;;11.21;100.00
39681;BME280;26327;42.550;23.120;2023-05-09T02:44:03;93009.91;;;11.30;100.00
39681;BME280;26327;42.550;23.120;2023-05-09T02:46:30;93021.56;;;11.49;100.00
39681;BME280;26327;42.550;23.120;2023-05-09T02:48:55;93023.91;;;11.44;100.00
39681;BME280;26327;42.550;23.120;2023-05-09T02:51:21;92952.78;;;10.63;100.00
39681;BME280;26327;42.550;23.120;2023-05-09T02:53:46;93014.59;;;11.05;100.00
39681;BME280;26327;42.550;23.120;2023-05-09T02:56:12;93026.88;;;10.96;100.00
39681;BME280;26327;42.550;23.120;2023-05-09T02:58:37;92994.56;;;10.76;100.00
39681;BME280;26327;42.550;23.120;2023-05-09T03:01:03;92885.84;;;9.98;100.00
39681;BME280;26327;42.550;23.120;2023-05-09T03:03:29;92961.22;;;10.65;100.00
39681;BME280;26327;42.550;23.120;2023-05-09T03:05:54;92930.94;;;10.72;100.00
39681;BME280;26327;42.550;23.120;2023-05-09T03:08:20;93035.03;;;11.38;100.00
39681;BME280;26327;42.550;23.120;2023-05-09T03:10:45;92894.25;;;10.37;100.00
39681;BME280;26327;42.550;23.120;2023-05-09T03:13:11;92953.97;;;10.60;100.00
39681;BME280;26327;42.550;23.120;2023-05-09T03:15:37;93040.59;;;11.05;100.00
39681;BME280;26327;42.550;23.120;2023-05-09T03:18:02;93035.19;;;10.92;100.00
39681;BME280;26327;42.550;23.120;2023-05-09T03:20:28;93052.69;;;10.98;100.00
39681;BME280;26327;42.550;23.120;2023-05-09T03:22:53;92977.63;;;10.28;100.00
39681;BME280;26327;42.550;23.120;2023-05-09T03:25:19;93049.81;;;10.55;100.00
39681;BME280;26327;42.550;23.120;2023-05-09T03:27:44;93062.47;;;10.73;100.00
39681;BME280;26327;42.550;23.120;2023-05-09T03:30:10;92985.16;;;10.37;100.00
39681;BME280;26327;42.550;23.120;2023-05-09T03:32:35;93041.38;;;10.91;100.00
39681;BME280;26327;42.550;23.120;2023-05-09T03:35:01;93035.69;;;10.72;100.00
39681;BME280;26327;42.550;23.120;2023-05-09T03:37:26;93055.88;;;10.85;100.00
39681;BME280;26327;42.550;23.120;2023-05-09T03:39:52;92998.66;;;10.56;100.00
39681;BME280;26327;42.550;23.120;2023-05-09T03:42:17;93052.69;;;11.13;100.00
39681;BME280;26327;42.550;23.120;2023-05-09T03:44:42;93047.84;;;10.95;100.00
39681;BME280;26327;42.550;23.120;2023-05-09T03:47:08;93066.53;;;10.76;100.00
39681;BME280;26327;42.550;23.120;2023-05-09T03:49:33;93058.28;;;10.72;100.00
39681;BME280;26327;42.550;23.120;2023-05-09T03:51:58;93040.75;;;10.51;100.00
39681;BME280;26327;42.550;23.120;2023-05-09T03:54:24;93063.38;;;10.65;100.00
39681;BME280;26327;42.550;23.120;2023-05-09T03:56:49;92987.19;;;10.04;100.00
39681;BME280;26327;42.550;23.120;2023-05-09T03:59:15;93070.25;;;10.96;100.00
39681;BME280;26327;42.550;23.120;2023-05-09T04:01:40;93048.91;;;11.00;100.00
39681;BME280;26327;42.550;23.120;2023-05-09T04:04:06;93067.31;;;11.14;100.00
39681;BME280;26327;42.550;23.120;2023-05-09T04:06:32;93059.59;;;10.91;100.00
39681;BME280;26327;42.550;23.120;2023-05-09T04:08:58;93063.97;;;10.90;100.00
39681;BME280;26327;42.550;23.120;2023-05-09T04:11:23;93053.94;;;11.02;100.00
39681;BME280;26327;42.550;23.120;2023-05-09T04:13:49;93040.84;;;11.25;100.00
39681;BME280;26327;42.550;23.120;2023-05-09T04:16:14;93054.06;;;11.38;100.00
39681;BME280;26327;42.550;23.120;2023-05-09T04:18:39;93067.13;;;11.59;100.00
39681;BME280;26327;42.550;23.120;2023-05-09T04:21:06;92988.03;;;11.24;100.00
39681;BME280;26327;42.550;23.120;2023-05-09T04:23:31;93055.75;;;11.90;100.00
39681;BME280;26327;42.550;23.120;2023-05-09T04:25:57;93070.50;;;12.04;100.00
39681;BME280;26327;42.550;23.120;2023-05-09T04:28:22;93072.25;;;12.18;100.00
39681;BME280;26327;42.550;23.120;2023-05-09T04:30:48;93058.88;;;12.21;100.00
39681;BME280;26327;42.550;23.120;2023-05-09T04:33:13;93048.59;;;12.35;100.00
39681;BME280;26327;42.550;23.120;2023-05-09T04:35:38;92916.94;;;11.75;100.00
39681;BME280;26327;42.550;23.120;2023-05-09T04:38:05;93025.28;;;12.76;100.00
39681;BME280;26327;42.550;23.120;2023-05-09T04:40:30;92982.63;;;12.55;100.00
39681;BME280;26327;42.550;23.120;2023-05-09T04:42:56;93047.00;;;13.32;100.00
39681;BME280;26327;42.550;23.120;2023-05-09T04:45:21;92983.66;;;13.17;99.80
39681;BME280;26327;42.550;23.120;2023-05-09T04:47:47;93061.91;;;13.79;98.90
39681;BME280;26327;42.550;23.120;2023-05-09T04:50:12;92964.38;;;13.52;96.65
39681;BME280;26327;42.550;23.120;2023-05-09T04:52:38;93051.75;;;14.04;96.44
39681;BME280;26327;42.550;23.120;2023-05-09T04:55:03;93050.97;;;14.10;95.38
39681;BME280;26327;42.550;23.120;2023-05-09T04:57:29;93071.34;;;14.22;95.71
39681;BME280;26327;42.550;23.120;2023-05-09T04:59:54;93059.78;;;14.03;95.60
39681;BME280;26327;42.550;23.120;2023-05-09T05:02:19;93030.22;;;13.89;96.32
39681;BME280;26327;42.550;23.120;2023-05-09T05:04:46;93004.09;;;13.89;96.82
39681;BME280;26327;42.550;23.120;2023-05-09T05:07:11;93031.97;;;14.36;96.21
39681;BME280;26327;42.550;23.120;2023-05-09T05:09:37;93046.50;;;14.59;95.42
39681;BME280;26327;42.550;23.120;2023-05-09T05:12:02;92988.94;;;14.39;92.83
39681;BME280;26327;42.550;23.120;2023-05-09T05:14:31;93028.81;;;15.00;90.84
39681;BME280;26327;42.550;23.120;2023-05-09T05:16:56;93046.50;;;15.05;90.33
39681;BME280;26327;42.550;23.120;2023-05-09T05:19:23;93056.97;;;15.38;90.47
39681;BME280;26327;42.550;23.120;2023-05-09T05:21:48;92981.75;;;14.67;92.05
39681;BME280;26327;42.550;23.120;2023-05-09T05:24:13;93066.63;;;15.37;90.14
39681;BME280;26327;42.550;23.120;2023-05-09T05:26:39;93046.25;;;15.46;88.92
39681;BME280;26327;42.550;23.120;2023-05-09T05:29:05;93058.34;;;15.54;88.82
39681;BME280;26327;42.550;23.120;2023-05-09T05:31:30;93051.13;;;15.36;87.82
39681;BME280;26327;42.550;23.120;2023-05-09T05:33:55;93031.78;;;15.63;86.42
39681;BME280;26327;42.550;23.120;2023-05-09T05:36:21;92986.81;;;15.53;85.32
39681;BME280;26327;42.550;23.120;2023-05-09T05:38:46;93033.91;;;15.86;84.28
39681;BME280;26327;42.550;23.120;2023-05-09T05:41:11;93032.44;;;15.97;84.04
39681;BME280;26327;42.550;23.120;2023-05-09T05:43:39;93016.25;;;16.13;82.55
39681;BME280;26327;42.550;23.120;2023-05-09T05:46:05;93041.97;;;16.29;82.00
39681;BME280;26327;42.550;23.120;2023-05-09T05:48:30;93060.03;;;16.44;82.94
39681;BME280;26327;42.550;23.120;2023-05-09T05:50:55;93045.16;;;16.38;82.15
39681;BME280;26327;42.550;23.120;2023-05-09T05:53:21;92982.91;;;15.89;81.11
39681;BME280;26327;42.550;23.120;2023-05-09T05:55:46;93055.31;;;16.66;81.18
39681;BME280;26327;42.550;23.120;2023-05-09T05:58:13;92995.06;;;16.46;80.38
39681;BME280;26327;42.550;23.120;2023-05-09T06:00:38;93038.38;;;16.62;78.40
39681;BME280;26327;42.550;23.120;2023-05-09T06:03:04;92942.97;;;16.25;78.61
39681;BME280;26327;42.550;23.120;2023-05-09T06:05:29;92984.00;;;16.76;77.07
39681;BME280;26327;42.550;23.120;2023-05-09T06:07:55;93007.94;;;17.11;77.58
39681;BME280;26327;42.550;23.120;2023-05-09T06:10:20;92986.88;;;17.17;73.85
39681;BME280;26327;42.550;23.120;2023-05-09T06:12:45;93004.03;;;17.38;71.15
39681;BME280;26327;42.550;23.120;2023-05-09T06:15:11;93000.81;;;17.79;70.28
39681;BME280;26327;42.550;23.120;2023-05-09T06:17:36;92983.88;;;17.75;68.87
39681;BME280;26327;42.550;23.120;2023-05-09T06:20:02;93033.66;;;17.88;68.45
39681;BME280;26327;42.550;23.120;2023-05-09T06:22:27;92965.09;;;17.53;66.85
39681;BME280;26327;42.550;23.120;2023-05-09T06:24:53;92988.47;;;17.80;67.27
39681;BME280;26327;42.550;23.120;2023-05-09T06:27:18;93004.38;;;18.33;63.33
39681;BME280;26327;42.550;23.120;2023-05-09T06:29:43;92967.97;;;18.18;63.45
39681;BME280;26327;42.550;23.120;2023-05-09T06:32:09;93024.03;;;18.91;62.07
39681;BME280;26327;42.550;23.120;2023-05-09T06:34:34;92980.63;;;18.70;61.60
39681;BME280;26327;42.550;23.120;2023-05-09T06:36:59;92983.19;;;19.46;60.11
39681;BME280;26327;42.550;23.120;2023-05-09T06:39:25;92959.69;;;19.68;58.12
39681;BME280;26327;42.550;23.120;2023-05-09T06:41:50;92992.47;;;20.12;55.48
39681;BME280;26327;42.550;23.120;2023-05-09T06:44:15;93036.09;;;20.72;54.24
39681;BME280;26327;42.550;23.120;2023-05-09T06:46:41;93019.38;;;21.45;52.74
39681;BME280;26327;42.550;23.120;2023-05-09T06:49:06;92967.13;;;21.52;48.39
39681;BME280;26327;42.550;23.120;2023-05-09T06:51:32;93037.19;;;21.88;49.53
39681;BME280;26327;42.550;23.120;2023-05-09T06:53:57;93045.78;;;21.62;52.08
39681;BME280;26327;42.550;23.120;2023-05-09T06:56:23;93006.38;;;21.60;51.16
39681;BME280;26327;42.550;23.120;2023-05-09T06:58:49;92965.31;;;21.02;51.92
39681;BME280;26327;42.550;23.120;2023-05-09T07:01:15;92962.94;;;20.27;51.62
39681;BME280;26327;42.550;23.120;2023-05-09T07:03:41;93008.47;;;20.34;52.66
39681;BME280;26327;42.550;23.120;2023-05-09T07:06:07;92975.47;;;20.20;53.45
39681;BME280;26327;42.550;23.120;2023-05-09T07:08:32;93008.59;;;20.39;54.60
39681;BME280;26327;42.550;23.120;2023-05-09T07:10:57;93025.50;;;20.15;54.78
39681;BME280;26327;42.550;23.120;2023-05-09T07:13:23;93005.53;;;20.19;53.81
39681;BME280;26327;42.550;23.120;2023-05-09T07:15:48;92926.91;;;19.64;55.14
39681;BME280;26327;42.550;23.120;2023-05-09T07:18:13;92966.47;;;19.64;55.18
39681;BME280;26327;42.550;23.120;2023-05-09T07:20:39;93045.28;;;20.01;54.65
39681;BME280;26327;42.550;23.120;2023-05-09T07:23:05;92966.84;;;19.96;54.39
39681;BME280;26327;42.550;23.120;2023-05-09T07:25:31;93029.75;;;20.56;52.24
39681;BME280;26327;42.550;23.120;2023-05-09T07:27:56;92937.56;;;20.83;52.58
39681;BME280;26327;42.550;23.120;2023-05-09T07:30:22;93040.25;;;20.68;51.99
39681;BME280;26327;42.550;23.120;2023-05-09T07:32:47;92965.97;;;20.19;51.93
39681;BME280;26327;42.550;23.120;2023-05-09T07:35:13;92947.63;;;20.12;51.33
39681;BME280;26327;42.550;23.120;2023-05-09T07:37:38;92997.38;;;20.21;52.16
39681;BME280;26327;42.550;23.120;2023-05-09T07:40:05;93025.03;;;19.66;54.19
39681;BME280;26327;42.550;23.120;2023-05-09T07:42:31;92996.13;;;19.71;54.31
39681;BME280;26327;42.550;23.120;2023-05-09T07:44:57;93032.97;;;20.06;53.61
39681;BME280;26327;42.550;23.120;2023-05-09T07:47:23;92975.09;;;20.85;50.06
39681;BME280;26327;42.550;23.120;2023-05-09T07:49:49;92938.72;;;21.09;47.68
39681;BME280;26327;42.550;23.120;2023-05-09T07:52:15;93012.56;;;21.88;47.60
39681;BME280;26327;42.550;23.120;2023-05-09T07:54:42;93014.41;;;22.53;46.11
39681;BME280;26327;42.550;23.120;2023-05-09T07:57:07;92940.88;;;21.46;47.62
39681;BME280;26327;42.550;23.120;2023-05-09T07:59:33;93007.50;;;20.97;50.59
39681;BME280;26327;42.550;23.120;2023-05-09T08:01:58;93004.06;;;20.52;50.41
39681;BME280;26327;42.550;23.120;2023-05-09T08:04:24;92944.22;;;20.40;50.72
39681;BME280;26327;42.550;23.120;2023-05-09T08:06:50;93019.75;;;21.03;51.09
39681;BME280;26327;42.550;23.120;2023-05-09T08:09:15;92895.25;;;21.17;49.40
39681;BME280;26327;42.550;23.120;2023-05-09T08:11:41;92953.09;;;23.25;43.36
39681;BME280;26327;42.550;23.120;2023-05-09T08:14:06;92954.81;;;22.77;43.07
39681;BME280;26327;42.550;23.120;2023-05-09T08:16:32;93029.16;;;22.22;45.12
39681;BME280;26327;42.550;23.120;2023-05-09T08:18:57;93031.47;;;21.41;46.37
39681;BME280;26327;42.550;23.120;2023-05-09T08:21:23;93002.09;;;21.38;47.77
39681;BME280;26327;42.550;23.120;2023-05-09T08:23:48;93022.16;;;21.55;46.36
39681;BME280;26327;42.550;23.120;2023-05-09T08:26:13;92968.97;;;20.51;47.40
39681;BME280;26327;42.550;23.120;2023-05-09T08:28:39;93018.19;;;20.74;49.42
39681;BME280;26327;42.550;23.120;2023-05-09T08:31:04;92998.66;;;20.75;48.40
39681;BME280;26327;42.550;23.120;2023-05-09T08:33:30;92984.59;;;22.14;44.54
39681;BME280;26327;42.550;23.120;2023-05-09T08:35:55;92927.44;;;24.51;38.27
39681;BME280;26327;42.550;23.120;2023-05-09T08:38:21;92959.34;;;25.52;36.27
39681;BME280;26327;42.550;23.120;2023-05-09T08:40:46;93016.50;;;24.73;36.31
39681;BME280;26327;42.550;23.120;2023-05-09T08:43:12;92941.09;;;22.80;38.61
39681;BME280;26327;42.550;23.120;2023-05-09T08:45:49;92977.50;;;22.68;39.73
39681;BME280;26327;42.550;23.120;2023-05-09T08:48:15;93004.34;;;21.67;43.35
39681;BME280;26327;42.550;23.120;2023-05-09T08:50:42;92981.75;;;21.38;45.57
39681;BME280;26327;42.550;23.120;2023-05-09T08:53:08;92975.09;;;20.40;47.02
39681;BME280;26327;42.550;23.120;2023-05-09T08:55:33;93006.44;;;21.65;44.59
39681;BME280;26327;42.550;23.120;2023-05-09T08:57:59;92991.47;;;21.21;45.16
39681;BME280;26327;42.550;23.120;2023-05-09T09:00:25;92996.88;;;20.64;47.30
39681;BME280;26327;42.550;23.120;2023-05-09T09:02:52;92951.13;;;20.58;47.81
39681;BME280;26327;42.550;23.120;2023-05-09T09:05:18;93007.31;;;20.30;48.81
39681;BME280;26327;42.550;23.120;2023-05-09T09:07:44;93004.94;;;21.02;49.66
39681;BME280;26327;42.550;23.120;2023-05-09T09:10:10;93006.72;;;22.51;43.99
39681;BME280;26327;42.550;23.120;2023-05-09T09:12:38;92921.78;;;22.85;40.28
39681;BME280;26327;42.550;23.120;2023-05-09T09:15:06;92978.75;;;23.99;39.92
39681;BME280;26327;42.550;23.120;2023-05-09T09:17:36;92999.00;;;25.49;36.21
39681;BME280;26327;42.550;23.120;2023-05-09T09:20:07;92993.38;;;24.69;38.32
39681;BME280;26327;42.550;23.120;2023-05-09T09:22:35;93012.88;;;23.75;40.06
39681;BME280;26327;42.550;23.120;2023-05-09T09:25:02;92959.66;;;23.17;42.07
39681;BME280;26327;42.550;23.120;2023-05-09T09:27:28;92990.38;;;22.81;41.28
39681;BME280;26327;42.550;23.120;2023-05-09T09:30:00;92963.69;;;22.88;41.39
39681;BME280;26327;42.550;23.120;2023-05-09T09:32:33;92977.22;;;22.16;42.25
39681;BME280;26327;42.550;23.120;2023-05-09T09:35:03;92928.84;;;21.21;43.47
39681;BME280;26327;42.550;23.120;2023-05-09T09:37:36;92898.25;;;22.29;42.97
39681;BME280;26327;42.550;23.120;2023-05-09T09:40:02;92957.22;;;22.79;42.33
39681;BME280;26327;42.550;23.120;2023-05-09T09:42:47;93003.94;;;22.63;43.02
39681;BME280;26327;42.550;23.120;2023-05-09T09:45:17;93008.59;;;21.68;43.92
39681;BME280;26327;42.550;23.120;2023-05-09T09:47:44;92983.91;;;20.46;46.13
39681;BME280;26327;42.550;23.120;2023-05-09T09:50:17;93009.59;;;20.38;47.04
39681;BME280;26327;42.550;23.120;2023-05-09T09:52:54;92984.25;;;20.09;49.45
39681;BME280;26327;42.550;23.120;2023-05-09T09:55:21;93004.91;;;20.29;49.31
39681;BME280;26327;42.550;23.120;2023-05-09T09:57:47;92878.03;;;19.45;48.19
39681;BME280;26327;42.550;23.120;2023-05-09T10:00:14;93007.13;;;20.20;51.40
39681;BME280;26327;42.550;23.120;2023-05-09T10:02:56;92977.94;;;20.38;51.46
39681;BME280;26327;42.550;23.120;2023-05-09T10:05:29;92936.16;;;19.90;50.56
39681;BME280;26327;42.550;23.120;2023-05-09T10:08:02;92997.00;;;20.29;47.16
39681;BME280;26327;42.550;23.120;2023-05-09T10:10:30;92977.72;;;20.85;48.94
39681;BME280;26327;42.550;23.120;2023-05-09T10:13:06;92975.97;;;21.24;46.97
39681;BME280;26327;42.550;23.120;2023-05-09T10:15:34;92988.28;;;20.28;47.69
39681;BME280;26327;42.550;23.120;2023-05-09T10:18:01;92983.75;;;20.12;48.61
39681;BME280;26327;42.550;23.120;2023-05-09T10:20:31;92929.19;;;20.29;49.79
39681;BME280;26327;42.550;23.120;2023-05-09T10:23:02;92926.31;;;19.74;49.40
39681;BME280;26327;42.550;23.120;2023-05-09T10:25:50;92967.72;;;19.62;50.48
39681;BME280;26327;42.550;23.120;2023-05-09T10:28:22;92897.94;;;19.64;51.29
39681;BME280;26327;42.550;23.120;2023-05-09T10:31:00;92963.31;;;20.19;53.08
39681;BME280;26327;42.550;23.120;2023-05-09T10:33:42;92846.19;;;19.35;49.26
39681;BME280;26327;42.550;23.120;2023-05-09T10:36:10;92975.47;;;20.20;49.09
39681;BME280;26327;42.550;23.120;2023-05-09T10:38:37;92989.22;;;19.82;50.12
39681;BME280;26327;42.550;23.120;2023-05-09T10:41:03;92955.44;;;19.67;50.22
39681;BME280;26327;42.550;23.120;2023-05-09T10:43:31;92992.34;;;19.67;51.85
39681;BME280;26327;42.550;23.120;2023-05-09T10:45:57;92967.38;;;19.70;52.11
39681;BME280;26327;42.550;23.120;2023-05-09T10:48:23;92988.53;;;19.98;50.80
39681;BME280;26327;42.550;23.120;2023-05-09T10:50:49;92985.91;;;19.87;50.48
39681;BME280;26327;42.550;23.120;2023-05-09T10:53:15;92940.34;;;19.51;50.53
39681;BME280;26327;42.550;23.120;2023-05-09T10:58:28;92964.63;;;19.30;49.76
39681;BME280;26327;42.550;23.120;2023-05-09T11:00:56;92956.25;;;19.33;50.74
39681;BME280;26327;42.550;23.120;2023-05-09T11:03:23;92996.22;;;19.76;50.64
39681;BME280;26327;42.550;23.120;2023-05-09T11:05:51;92872.50;;;18.95;49.94
39681;BME280;26327;42.550;23.120;2023-05-09T11:08:25;92989.47;;;19.69;48.84
39681;BME280;26327;42.550;23.120;2023-05-09T11:10:56;92937.25;;;19.42;45.47
39681;BME280;26327;42.550;23.120;2023-05-09T11:13:24;92994.84;;;19.74;44.54
39681;BME280;26327;42.550;23.120;2023-05-09T11:18:18;92993.28;;;19.61;47.11
39681;BME280;26327;42.550;23.120;2023-05-09T11:20:45;92979.28;;;19.37;46.19
39681;BME280;26327;42.550;23.120;2023-05-09T11:23:15;92932.09;;;18.77;47.78
39681;BME280;26327;42.550;23.120;2023-05-09T11:25:41;93003.91;;;18.96;48.41
39681;BME280;26327;42.550;23.120;2023-05-09T11:28:09;92923.47;;;18.17;51.73
39681;BME280;26327;42.550;23.120;2023-05-09T11:30:41;92994.66;;;18.34;54.44
39681;BME280;26327;42.550;23.120;2023-05-09T11:33:26;93009.91;;;17.95;55.75
39681;BME280;26327;42.550;23.120;2023-05-09T11:36:18;93012.13;;;17.80;56.69
39681;BME280;26327;42.550;23.120;2023-05-09T11:38:45;92846.72;;;16.57;57.67
39681;BME280;26327;42.550;23.120;2023-05-09T11:41:11;93019.50;;;17.28;57.85
39681;BME280;26327;42.550;23.120;2023-05-09T11:43:39;92932.69;;;16.80;60.37
39681;BME280;26327;42.550;23.120;2023-05-09T11:46:06;92898.16;;;16.33;59.31
39681;BME280;26327;42.550;23.120;2023-05-09T11:48:39;92937.53;;;16.51;60.12
39681;BME280;26327;42.550;23.120;2023-05-09T11:51:04;92955.47;;;16.54;59.12
39681;BME280;26327;42.550;23.120;2023-05-09T11:53:31;92984.81;;;16.76;60.80
39681;BME280;26327;42.550;23.120;2023-05-09T11:55:56;92915.50;;;16.34;60.83
39681;BME280;26327;42.550;23.120;2023-05-09T11:58:22;92999.63;;;16.89;61.54
39681;BME280;26327;42.550;23.120;2023-05-09T12:00:47;92839.81;;;15.88;61.67
39681;BME280;26327;42.550;23.120;2023-05-09T12:03:13;92993.31;;;16.72;61.60
39681;BME280;26327;42.550;23.120;2023-05-09T12:05:38;92928.34;;;16.42;61.70
39681;BME280;26327;42.550;23.120;2023-05-09T12:08:05;92978.16;;;16.98;60.59
39681;BME280;26327;42.550;23.120;2023-05-09T12:10:31;92842.97;;;15.96;61.38
39681;BME280;26327;42.550;23.120;2023-05-09T12:12:57;92998.63;;;17.15;61.46
39681;BME280;26327;42.550;23.120;2023-05-09T12:15:22;92986.88;;;16.92;61.16
39681;BME280;26327;42.550;23.120;2023-05-09T12:18:02;92980.84;;;16.92;61.77
39681;BME280;26327;42.550;23.120;2023-05-09T12:20:47;92891.47;;;16.37;61.80
39681;BME280;26327;42.550;23.120;2023-05-09T12:23:14;92969.75;;;16.90;61.51
39681;BME280;26327;42.550;23.120;2023-05-09T12:25:47;92963.69;;;16.64;62.56
39681;BME280;26327;42.550;23.120;2023-05-09T12:28:13;92902.81;;;16.56;61.85
39681;BME280;26327;42.550;23.120;2023-05-09T12:30:39;92924.63;;;16.81;61.17
39681;BME280;26327;42.550;23.120;2023-05-09T12:33:06;92927.81;;;17.26;61.02
39681;BME280;26327;42.550;23.120;2023-05-09T12:35:37;92980.44;;;17.56;59.17
39681;BME280;26327;42.550;23.120;2023-05-09T12:38:02;92981.38;;;17.80;58.00
39681;BME280;26327;42.550;23.120;2023-05-09T12:40:27;92953.63;;;17.84;57.63
39681;BME280;26327;42.550;23.120;2023-05-09T12:42:56;92976.84;;;18.06;56.46
39681;BME280;26327;42.550;23.120;2023-05-09T12:45:25;92952.53;;;18.22;55.42
39681;BME280;26327;42.550;23.120;2023-05-09T12:47:52;92964.53;;;18.18;55.92
39681;BME280;26327;42.550;23.120;2023-05-09T12:50:18;92972.00;;;18.33;55.20
39681;BME280;26327;42.550;23.120;2023-05-09T12:52:49;92895.09;;;17.77;55.47
39681;BME280;26327;42.550;23.120;2023-05-09T12:55:17;92967.63;;;17.97;55.36
39681;BME280;26327;42.550;23.120;2023-05-09T12:57:56;92946.09;;;17.88;55.34
39681;BME280;26327;42.550;23.120;2023-05-09T13:00:22;92974.53;;;17.98;56.36